Time;durP1;ratioP1;P1;durP2;ratioP2;P2;SDS_P1;SDS_P2;PMS_P1;PMS_P2;Temp;Humidity;BMP_temperature;BMP_pressure;BME280_temperature;BME280_humidity;BME280_pressure;Samples;Min_cycle;Max_cycle;Signal;HPM_P1;HPM_P2
2023/03/06 00:02:43;;;;;;;0.97;0.97;;;;;;;;;;6189296;28;20481;-78
2023/03/06 00:05:54;;;;;;;1.13;1.10;;;;;;;;;;6190015;28;20300;-78
2023/03/06 00:09:04;;;;;;;1.00;1.00;;;;;;;;;;6189655;28;20300;-79
2023/03/06 00:12:11;;;;;;;1.00;1.00;;;;;;;;;;6189567;28;20300;-78
2023/03/06 00:15:17;;;;;;;1.27;1.17;;;;;;;;;;6188943;28;20516;-77
2023/03/06 00:18:22;;;;;;;1.10;1.10;;;;;;;;;;6189255;28;20581;-78
2023/03/06 00:21:29;;;;;;;1.20;1.20;;;;;;;;;;6189684;28;20300;-78
2023/03/06 00:24:34;;;;;;;1.10;1.10;;;;;;;;;;6189326;28;20304;-78
2023/03/06 00:27:39;;;;;;;1.10;1.10;;;;;;;;;;6189024;28;20293;-78
2023/03/06 00:30:47;;;;;;;1.17;1.10;;;;;;;;;;6189165;28;20300;-79
2023/03/06 00:33:52;;;;;;;1.00;1.00;;;;;;;;;;6187443;28;20470;-79
2023/03/06 00:36:59;;;;;;;1.00;1.00;;;;;;;;;;6203770;28;20296;-79
2023/03/06 00:40:06;;;;;;;1.00;1.00;;;;;;;;;;6203562;28;20477;-78
2023/03/06 00:43:13;;;;;;;1.20;0.90;;;;;;;;;;6188444;28;20296;-78
2023/03/06 00:46:19;;;;;;;2.00;1.10;;;;;;;;;;6188527;28;20296;-78
2023/03/06 00:49:24;;;;;;;1.10;1.10;;;;;;;;;;6185871;28;20296;-78
2023/03/06 00:52:31;;;;;;;1.43;1.30;;;;;;;;;;6187650;28;20292;-78
2023/03/06 00:55:37;;;;;;;1.20;1.17;;;;;;;;;;6186796;28;20273;-78
2023/03/06 00:58:42;;;;;;;1.20;1.20;;;;;;;;;;6186891;28;20296;-78
2023/03/06 01:01:47;;;;;;;1.07;1.07;;;;;;;;;;6188369;28;20293;-77
2023/03/06 01:04:52;;;;;;;1.10;1.10;;;;;;;;;;6188525;28;20370;-77
2023/03/06 01:08:02;;;;;;;1.10;1.10;;;;;;;;;;6186806;28;20585;-77
2023/03/06 01:11:07;;;;;;;1.13;1.13;;;;;;;;;;6170884;28;20296;-77
2023/03/06 01:14:14;;;;;;;1.10;1.10;;;;;;;;;;6186480;28;20298;-79
2023/03/06 01:17:19;;;;;;;1.27;1.20;;;;;;;;;;6187904;28;20289;-78
2023/03/06 01:20:25;;;;;;;1.20;1.20;;;;;;;;;;6187847;28;20376;-78
2023/03/06 01:23:32;;;;;;;1.10;1.10;;;;;;;;;;6187995;28;20296;-76
2023/03/06 01:26:37;;;;;;;1.00;1.00;;;;;;;;;;6170199;28;20304;-77
2023/03/06 01:29:43;;;;;;;1.10;1.10;;;;;;;;;;6202573;28;20316;-78
2023/03/06 01:32:49;;;;;;;1.90;1.30;;;;;;;;;;6186309;28;20300;-79
2023/03/06 01:35:54;;;;;;;1.20;1.20;;;;;;;;;;6187973;28;20298;-78
2023/03/06 01:39:00;;;;;;;3.93;1.30;;;;;;;;;;6187021;28;20297;-78
2023/03/06 01:42:06;;;;;;;1.33;1.00;;;;;;;;;;6163041;29;20300;-78
2023/03/06 01:45:44;;;;;;;1.30;1.30;;;;;;;;;;6162266;29;20487;-77
2023/03/06 01:48:52;;;;;;;1.53;1.43;;;;;;;;;;6163785;28;20301;-79
2023/03/06 01:52:02;;;;;;;1.00;1.00;;;;;;;;;;6164042;28;20306;-78
2023/03/06 01:55:12;;;;;;;1.07;1.07;;;;;;;;;;6163913;28;20333;-78
2023/03/06 01:58:19;;;;;;;1.23;1.10;;;;;;;;;;6163591;28;20293;-77
2023/03/06 02:01:24;;;;;;;1.37;1.20;;;;;;;;;;6161601;28;20275;-77
2023/03/06 02:04:30;;;;;;;1.00;1.00;;;;;;;;;;6200708;23;20303;-76
2023/03/06 02:07:35;;;;;;;1.30;1.30;;;;;;;;;;6225596;28;20299;-75
2023/03/06 02:10:43;;;;;;;1.30;1.30;;;;;;;;;;6225844;28;20288;-74
2023/03/06 02:13:50;;;;;;;1.20;1.20;;;;;;;;;;6210599;28;20300;-74
2023/03/06 02:16:55;;;;;;;1.00;1.00;;;;;;;;;;6224942;28;20296;-75
2023/03/06 02:20:04;;;;;;;1.27;1.20;;;;;;;;;;6208146;28;20292;-75
2023/03/06 02:23:13;;;;;;;1.53;1.50;;;;;;;;;;6223912;28;20299;-75
2023/03/06 02:26:20;;;;;;;1.37;1.37;;;;;;;;;;6210420;28;20299;-76
2023/03/06 02:29:28;;;;;;;1.80;1.10;;;;;;;;;;6207120;28;20302;-74
2023/03/06 02:32:37;;;;;;;1.23;1.23;;;;;;;;;;6208556;28;20303;-75
2023/03/06 02:35:46;;;;;;;1.30;1.20;;;;;;;;;;6209911;28;20303;-75
2023/03/06 02:38:52;;;;;;;2.87;1.37;;;;;;;;;;6208858;28;20299;-76
2023/03/06 02:41:59;;;;;;;1.10;1.10;;;;;;;;;;6207891;28;20298;-74
2023/03/06 02:45:08;;;;;;;1.63;1.10;;;;;;;;;;6222677;28;20586;-74
2023/03/06 02:48:15;;;;;;;1.20;1.20;;;;;;;;;;6207921;28;20288;-73
2023/03/06 02:51:20;;;;;;;1.20;1.20;;;;;;;;;;6208589;28;20303;-73
2023/03/06 02:54:26;;;;;;;1.30;1.30;;;;;;;;;;6207071;28;20315;-76
2023/03/06 02:57:33;;;;;;;1.13;1.13;;;;;;;;;;6209883;28;20572;-75
2023/03/06 03:00:38;;;;;;;1.30;1.30;;;;;;;;;;6210795;28;20294;-75
2023/03/06 03:03:46;;;;;;;1.30;1.20;;;;;;;;;;6226446;28;20295;-76
2023/03/06 03:06:54;;;;;;;1.53;1.53;;;;;;;;;;6210827;28;20288;-75
2023/03/06 03:10:01;;;;;;;1.50;1.50;;;;;;;;;;6208783;28;20292;-74
2023/03/06 03:13:08;;;;;;;1.40;1.30;;;;;;;;;;6207984;28;20315;-75
2023/03/06 03:16:15;;;;;;;1.47;1.40;;;;;;;;;;6208646;28;20293;-75
2023/03/06 03:19:21;;;;;;;1.23;1.23;;;;;;;;;;6208476;28;20464;-75
2023/03/06 03:22:29;;;;;;;1.53;1.53;;;;;;;;;;6223251;28;20526;-75
2023/03/06 03:25:34;;;;;;;1.13;1.13;;;;;;;;;;6208890;28;20299;-75
2023/03/06 03:28:42;;;;;;;1.50;1.50;;;;;;;;;;6207272;28;20291;-75
2023/03/06 03:31:49;;;;;;;2.60;1.40;;;;;;;;;;6208089;28;20316;-75
2023/03/06 03:34:56;;;;;;;1.30;1.30;;;;;;;;;;6207074;28;20298;-76
2023/03/06 03:38:03;;;;;;;1.83;1.40;;;;;;;;;;6208278;28;20300;-75
2023/03/06 03:41:09;;;;;;;1.17;1.17;;;;;;;;;;6208418;28;20300;-74
2023/03/06 03:44:16;;;;;;;1.30;1.30;;;;;;;;;;6207761;28;20292;-74
2023/03/06 03:47:22;;;;;;;1.60;1.60;;;;;;;;;;6207638;28;20307;-76
2023/03/06 03:50:27;;;;;;;1.40;1.40;;;;;;;;;;6208998;28;20456;-76
2023/03/06 03:53:33;;;;;;;1.70;1.60;;;;;;;;;;6211279;28;20300;-74
2023/03/06 03:56:39;;;;;;;1.23;1.20;;;;;;;;;;6212028;28;20296;-76
2023/03/06 03:59:56;;;;;;;2.63;1.47;;;;;;;;;;6212866;28;20304;-75
2023/03/06 04:03:07;;;;;;;1.20;1.20;;;;;;;;;;6200596;28;20356;-75
2023/03/06 04:06:16;;;;;;;1.30;1.23;;;;;;;;;;6211366;28;20295;-75
2023/03/06 04:09:23;;;;;;;3.80;1.30;;;;;;;;;;6227416;28;20299;-75
2023/03/06 04:12:30;;;;;;;1.60;1.60;;;;;;;;;;6211191;28;20300;-76
2023/03/06 04:15:36;;;;;;;1.17;1.17;;;;;;;;;;6213408;28;20295;-75
2023/03/06 04:18:41;;;;;;;1.17;1.17;;;;;;;;;;6212560;28;20298;-75
2023/03/06 04:21:46;;;;;;;1.40;1.40;;;;;;;;;;6212744;28;20580;-76
2023/03/06 04:24:52;;;;;;;1.20;1.20;;;;;;;;;;6212112;28;20313;-76
2023/03/06 04:27:58;;;;;;;1.83;1.63;;;;;;;;;;6227169;28;20293;-75
2023/03/06 04:31:05;;;;;;;1.40;1.30;;;;;;;;;;6210201;28;20331;-75
2023/03/06 04:34:13;;;;;;;1.40;1.40;;;;;;;;;;6226932;28;20301;-75
2023/03/06 04:37:21;;;;;;;1.20;1.20;;;;;;;;;;6212806;28;20600;-74
2023/03/06 04:40:28;;;;;;;1.23;1.23;;;;;;;;;;6210266;28;20308;-74
2023/03/06 04:43:33;;;;;;;1.33;1.33;;;;;;;;;;6211843;28;20306;-75
2023/03/06 04:46:40;;;;;;;1.57;1.47;;;;;;;;;;6211815;28;20296;-76
2023/03/06 04:49:45;;;;;;;1.33;1.23;;;;;;;;;;6211144;28;20427;-74
2023/03/06 04:52:50;;;;;;;1.20;1.20;;;;;;;;;;6210403;28;20296;-74
2023/03/06 04:55:55;;;;;;;1.10;1.10;;;;;;;;;;6211692;28;20315;-74
2023/03/06 04:59:00;;;;;;;1.20;1.20;;;;;;;;;;6212024;28;20296;-76
2023/03/06 05:02:08;;;;;;;1.00;1.00;;;;;;;;;;6210997;28;20300;-75
2023/03/06 05:05:15;;;;;;;1.10;1.10;;;;;;;;;;6210704;28;20320;-76
2023/03/06 05:08:20;;;;;;;1.00;1.00;;;;;;;;;;6211190;28;20291;-75
2023/03/06 05:11:25;;;;;;;1.33;1.33;;;;;;;;;;6211317;28;20343;-75
2023/03/06 05:14:33;;;;;;;1.23;1.23;;;;;;;;;;6210881;28;20307;-74
2023/03/06 05:17:40;;;;;;;1.30;1.20;;;;;;;;;;6226189;28;20300;-76
2023/03/06 05:20:45;;;;;;;4.83;1.30;;;;;;;;;;6211876;28;20296;-75
2023/03/06 05:23:50;;;;;;;1.33;1.33;;;;;;;;;;6211098;28;20311;-75
2023/03/06 05:26:56;;;;;;;1.17;1.17;;;;;;;;;;6211305;28;20296;-75
2023/03/06 05:30:03;;;;;;;1.20;1.20;;;;;;;;;;6209290;28;20309;-76
2023/03/06 05:33:11;;;;;;;1.20;1.20;;;;;;;;;;6211192;28;20299;-77
2023/03/06 05:36:16;;;;;;;1.10;1.10;;;;;;;;;;6211615;28;20308;-74
2023/03/06 05:39:21;;;;;;;1.30;1.30;;;;;;;;;;6210977;28;20484;-75
2023/03/06 05:42:27;;;;;;;2.10;1.10;;;;;;;;;;6209598;28;20383;-77
2023/03/06 05:45:32;;;;;;;1.40;1.40;;;;;;;;;;6211403;28;20308;-75
2023/03/06 05:48:41;;;;;;;1.40;1.40;;;;;;;;;;6211022;28;20307;-75
2023/03/06 05:51:50;;;;;;;1.20;1.20;;;;;;;;;;6211816;28;20616;-75
2023/03/06 05:54:56;;;;;;;1.10;1.10;;;;;;;;;;6211597;28;20338;-75
2023/03/06 05:58:03;;;;;;;1.23;1.23;;;;;;;;;;6211541;28;20304;-75
2023/03/06 06:01:12;;;;;;;1.10;1.10;;;;;;;;;;6211560;28;20292;-74
2023/03/06 06:04:19;;;;;;;1.10;1.10;;;;;;;;;;6210613;28;20311;-74
2023/03/06 06:07:26;;;;;;;1.30;1.20;;;;;;;;;;6209004;28;20280;-75
2023/03/06 06:10:31;;;;;;;3.80;1.20;;;;;;;;;;6211663;28;20340;-74
2023/03/06 06:13:37;;;;;;;1.10;1.10;;;;;;;;;;6210707;28;20616;-75
2023/03/06 06:16:43;;;;;;;1.10;1.10;;;;;;;;;;6211246;28;20626;-76
2023/03/06 06:19:49;;;;;;;1.20;1.20;;;;;;;;;;6209351;28;20299;-75
2023/03/06 06:22:55;;;;;;;1.03;1.03;;;;;;;;;;6210388;28;20300;-75
2023/03/06 06:26:00;;;;;;;1.10;1.10;;;;;;;;;;6211609;28;20311;-76
2023/03/06 06:29:07;;;;;;;1.20;1.20;;;;;;;;;;6210229;28;20399;-75
2023/03/06 06:32:12;;;;;;;1.07;1.07;;;;;;;;;;6209884;28;20304;-75
2023/03/06 06:35:19;;;;;;;1.13;1.13;;;;;;;;;;6209214;28;20303;-75
2023/03/06 06:38:25;;;;;;;1.20;1.20;;;;;;;;;;6209784;28;20315;-75
2023/03/06 06:41:31;;;;;;;1.30;1.20;;;;;;;;;;6209645;28;20305;-75
2023/03/06 06:44:56;;;;;;;1.33;1.33;;;;;;;;;;6208439;28;20319;-75
2023/03/06 06:48:01;;;;;;;1.20;1.20;;;;;;;;;;6210364;28;20297;-76
2023/03/06 06:51:09;;;;;;;1.50;1.40;;;;;;;;;;6209534;28;20292;-74
2023/03/06 06:54:17;;;;;;;1.23;1.23;;;;;;;;;;6208444;28;20300;-76
2023/03/06 06:57:25;;;;;;;2.10;1.20;;;;;;;;;;6211010;28;20297;-76
2023/03/06 07:00:30;;;;;;;1.10;1.10;;;;;;;;;;6208471;28;20297;-74
2023/03/06 07:03:35;;;;;;;1.10;1.10;;;;;;;;;;6208053;28;20613;-76
2023/03/06 07:06:42;;;;;;;1.20;1.20;;;;;;;;;;6210722;28;20304;-76
2023/03/06 07:09:48;;;;;;;2.00;1.30;;;;;;;;;;6210005;28;20301;-76
2023/03/06 07:12:55;;;;;;;1.37;1.37;;;;;;;;;;6209673;28;20393;-76
2023/03/06 07:16:00;;;;;;;1.47;1.37;;;;;;;;;;6208662;28;20301;-75
2023/03/06 07:19:06;;;;;;;1.40;1.00;;;;;;;;;;6209323;28;20305;-75
2023/03/06 07:22:15;;;;;;;3.50;1.27;;;;;;;;;;6209091;28;20292;-76
2023/03/06 07:25:21;;;;;;;1.20;1.20;;;;;;;;;;6209197;28;20436;-76
2023/03/06 07:28:26;;;;;;;1.33;1.30;;;;;;;;;;6214265;28;20292;-76
2023/03/06 07:31:32;;;;;;;1.87;1.23;;;;;;;;;;6215133;28;20269;-77
2023/03/06 07:34:37;;;;;;;1.20;1.20;;;;;;;;;;6229806;28;20492;-76
2023/03/06 07:37:44;;;;;;;1.40;1.40;;;;;;;;;;6229395;28;20307;-76
2023/03/06 07:40:53;;;;;;;1.20;1.20;;;;;;;;;;6214964;28;20299;-76
2023/03/06 07:43:58;;;;;;;1.40;1.40;;;;;;;;;;6214066;28;20300;-76
2023/03/06 07:47:04;;;;;;;2.93;1.40;;;;;;;;;;6213474;28;20291;-75
2023/03/06 07:50:11;;;;;;;1.40;1.30;;;;;;;;;;6214704;28;20301;-75
2023/03/06 07:53:18;;;;;;;1.70;1.47;;;;;;;;;;6214858;28;20310;-76
2023/03/06 07:56:24;;;;;;;1.30;1.30;;;;;;;;;;6214456;28;20594;-76
2023/03/06 07:59:29;;;;;;;1.40;1.40;;;;;;;;;;6213963;28;20303;-75
2023/03/06 08:02:35;;;;;;;1.13;1.13;;;;;;;;;;6213386;28;20289;-75
2023/03/06 08:05:40;;;;;;;1.30;1.30;;;;;;;;;;6213617;28;20313;-76
2023/03/06 08:08:48;;;;;;;1.30;1.30;;;;;;;;;;6213686;28;20297;-75
2023/03/06 08:11:55;;;;;;;1.30;1.20;;;;;;;;;;6212339;28;20309;-76
2023/03/06 08:14:59;;;;;;;1.10;1.10;;;;;;;;;;6213136;28;20318;-76
2023/03/06 08:18:05;;;;;;;1.20;1.20;;;;;;;;;;6213411;28;20308;-75
2023/03/06 08:21:12;;;;;;;1.43;1.27;;;;;;;;;;6213812;28;20584;-75
2023/03/06 08:24:19;;;;;;;1.37;1.37;;;;;;;;;;6213128;28;20297;-76
2023/03/06 08:27:24;;;;;;;1.57;1.20;;;;;;;;;;6211982;28;20296;-76
2023/03/06 08:30:30;;;;;;;1.60;1.50;;;;;;;;;;6211854;28;20614;-76
2023/03/06 08:33:35;;;;;;;1.43;1.10;;;;;;;;;;6213339;28;20287;-75
2023/03/06 08:36:40;;;;;;;1.50;1.40;;;;;;;;;;6213085;28;20300;-75
2023/03/06 08:39:47;;;;;;;1.13;1.13;;;;;;;;;;6212117;28;20296;-75
2023/03/06 08:42:55;;;;;;;1.50;1.40;;;;;;;;;;6212907;28;20330;-76
2023/03/06 08:46:00;;;;;;;1.40;1.40;;;;;;;;;;6213051;28;20310;-74
2023/03/06 08:49:09;;;;;;;1.17;1.17;;;;;;;;;;6218436;28;20298;-76
2023/03/06 08:52:15;;;;;;;1.20;1.20;;;;;;;;;;6219259;28;20298;-76
2023/03/06 08:55:22;;;;;;;1.47;1.20;;;;;;;;;;6211368;28;20584;-77
2023/03/06 08:58:34;;;;;;;4.20;1.40;;;;;;;;;;6211916;28;20594;-76
2023/03/06 09:01:40;;;;;;;1.20;1.20;;;;;;;;;;6212955;28;20272;-75
2023/03/06 09:04:45;;;;;;;1.27;1.20;;;;;;;;;;6210822;28;20297;-76
2023/03/06 09:07:51;;;;;;;1.40;1.40;;;;;;;;;;6211916;28;20592;-76
2023/03/06 09:10:57;;;;;;;1.77;1.30;;;;;;;;;;6211403;28;20304;-75
2023/03/06 09:14:05;;;;;;;1.30;1.30;;;;;;;;;;6210706;28;20294;-77
2023/03/06 09:17:11;;;;;;;3.10;1.27;;;;;;;;;;6212280;28;20298;-76
2023/03/06 09:20:16;;;;;;;6.63;1.10;;;;;;;;;;6211555;28;20261;-75
2023/03/06 09:23:23;;;;;;;1.10;1.10;;;;;;;;;;6211327;28;20292;-76
2023/03/06 09:26:29;;;;;;;2.20;1.17;;;;;;;;;;6210529;28;20298;-76
2023/03/06 09:29:50;;;;;;;1.17;1.13;;;;;;;;;;6211331;28;20298;-76
2023/03/06 09:32:55;;;;;;;3.93;1.70;;;;;;;;;;6211402;28;20291;-77
2023/03/06 09:36:02;;;;;;;1.63;1.63;;;;;;;;;;6211857;28;20302;-76
2023/03/06 09:39:08;;;;;;;1.40;1.40;;;;;;;;;;6210818;28;20298;-77
2023/03/06 09:42:17;;;;;;;1.93;1.90;;;;;;;;;;6210355;28;20303;-75
2023/03/06 09:45:22;;;;;;;1.43;1.30;;;;;;;;;;6211262;28;20298;-76
2023/03/06 09:48:36;;;;;;;1.17;1.17;;;;;;;;;;6210775;28;20306;-75
2023/03/06 09:51:51;;;;;;;2.90;1.80;;;;;;;;;;6211736;28;20299;-76
2023/03/06 09:55:01;;;;;;;1.90;1.90;;;;;;;;;;6210899;28;20594;-75
2023/03/06 09:58:13;;;;;;;2.00;2.00;;;;;;;;;;6209513;28;20307;-76
2023/03/06 10:01:22;;;;;;;3.10;1.50;;;;;;;;;;6225290;28;20605;-75
2023/03/06 10:04:35;;;;;;;1.30;1.30;;;;;;;;;;6208224;28;20310;-76
2023/03/06 10:07:46;;;;;;;1.70;1.70;;;;;;;;;;6210363;28;20315;-76
2023/03/06 10:10:58;;;;;;;1.73;1.37;;;;;;;;;;6210435;28;20294;-76
2023/03/06 10:14:16;;;;;;;1.60;1.50;;;;;;;;;;6210895;28;20299;-77
2023/03/06 10:17:22;;;;;;;1.60;1.60;;;;;;;;;;6210770;28;20314;-76
2023/03/06 10:20:29;;;;;;;2.70;2.03;;;;;;;;;;6225526;28;20290;-75
2023/03/06 10:23:42;;;;;;;2.30;2.07;;;;;;;;;;6210710;28;20309;-76
2023/03/06 10:26:55;;;;;;;1.53;1.53;;;;;;;;;;6209843;28;20297;-76
2023/03/06 10:30:09;;;;;;;3.07;2.10;;;;;;;;;;6209112;28;20455;-76
2023/03/06 10:33:22;;;;;;;1.20;1.20;;;;;;;;;;6210683;28;20327;-76
2023/03/06 10:36:29;;;;;;;1.23;1.10;;;;;;;;;;6211127;28;20303;-76
2023/03/06 10:39:34;;;;;;;1.37;1.20;;;;;;;;;;6208715;28;20311;-75
2023/03/06 10:42:39;;;;;;;1.70;1.60;;;;;;;;;;6209566;28;20364;-74
2023/03/06 10:45:50;;;;;;;1.47;1.47;;;;;;;;;;6210812;28;20294;-75
2023/03/06 10:48:59;;;;;;;1.40;1.40;;;;;;;;;;6210221;28;20609;-76
2023/03/06 10:52:06;;;;;;;1.67;1.57;;;;;;;;;;6210581;28;20611;-76
2023/03/06 10:55:33;;;;;;;1.60;1.50;;;;;;;;;;6209223;28;20304;-75
2023/03/06 10:58:39;;;;;;;1.30;1.30;;;;;;;;;;6204186;28;20300;-77
2023/03/06 11:01:47;;;;;;;3.23;1.60;;;;;;;;;;6215707;28;20296;-77
2023/03/06 11:04:54;;;;;;;1.77;1.70;;;;;;;;;;6214663;28;20581;-75
2023/03/06 11:08:00;;;;;;;1.40;1.30;;;;;;;;;;6213210;28;20303;-76
2023/03/06 11:11:07;;;;;;;3.90;1.60;;;;;;;;;;6215973;28;20293;-77
2023/03/06 11:14:18;;;;;;;1.50;1.50;;;;;;;;;;6214575;28;20380;-75
2023/03/06 11:17:30;;;;;;;2.27;1.30;;;;;;;;;;6215114;28;20292;-75
2023/03/06 11:20:42;;;;;;;1.10;1.10;;;;;;;;;;6213761;28;20597;-76
2023/03/06 11:24:02;;;;;;;1.30;1.30;;;;;;;;;;6214242;28;20336;-76
2023/03/06 11:27:21;;;;;;;1.20;1.20;;;;;;;;;;6213446;28;20311;-76
2023/03/06 11:30:32;;;;;;;2.40;1.00;;;;;;;;;;6214396;28;20304;-76
2023/03/06 11:33:44;;;;;;;1.50;1.50;;;;;;;;;;6214378;28;20299;-76
2023/03/06 11:41:19;;;;;;;1.60;1.60;;;;;;;;;;6002514;29;20296;-75
2023/03/06 11:44:35;;;;;;;2.57;1.10;;;;;;;;;;6102006;29;20311;-75
2023/03/06 11:47:42;;;;;;;1.27;1.00;;;;;;;;;;6124214;29;20302;-76
2023/03/06 11:50:50;;;;;;;1.50;1.40;;;;;;;;;;6139998;29;20312;-76
2023/03/06 11:53:56;;;;;;;1.37;1.27;;;;;;;;;;6123569;29;20302;-75
2023/03/06 11:57:04;;;;;;;3.53;2.20;;;;;;;;;;6139945;29;20298;-75
2023/03/06 12:00:21;;;;;;;1.60;1.60;;;;;;;;;;6139232;29;20299;-75
2023/03/06 12:03:51;;;;;;;1.23;1.17;;;;;;;;;;6138568;29;20302;-77
2023/03/06 12:07:04;;;;;;;1.70;1.60;;;;;;;;;;6124095;29;20304;-76
2023/03/06 12:10:19;;;;;;;2.80;1.60;;;;;;;;;;6122994;28;20310;-76
2023/03/06 12:13:38;;;;;;;1.57;1.20;;;;;;;;;;6135893;28;20305;-76
2023/03/06 12:17:04;;;;;;;1.47;1.47;;;;;;;;;;6146569;28;20333;-76
2023/03/06 12:20:24;;;;;;;1.93;1.50;;;;;;;;;;6212757;28;20486;-76
2023/03/06 12:23:50;;;;;;;1.43;1.40;;;;;;;;;;6211181;28;20305;-75
2023/03/06 12:27:04;;;;;;;1.10;1.10;;;;;;;;;;6213893;28;20289;-76
2023/03/06 12:30:27;;;;;;;2.40;2.30;;;;;;;;;;6213053;28;20600;-76
2023/03/06 12:33:40;;;;;;;3.43;2.17;;;;;;;;;;6228332;28;20578;-76
2023/03/06 12:36:54;;;;;;;2.27;2.17;;;;;;;;;;6213473;28;20300;-76
2023/03/06 12:40:26;;;;;;;2.20;2.00;;;;;;;;;;6211314;28;20569;-76
2023/03/06 12:43:55;;;;;;;1.70;1.60;;;;;;;;;;6210310;28;20302;-75
2023/03/06 12:47:01;;;;;;;2.73;1.57;;;;;;;;;;6195594;28;20535;-76
2023/03/06 12:50:17;;;;;;;1.43;1.40;;;;;;;;;;6210935;28;20299;-76
2023/03/06 12:53:26;;;;;;;1.50;1.50;;;;;;;;;;6212455;28;20304;-76
2023/03/06 12:56:34;;;;;;;1.20;1.20;;;;;;;;;;6211958;28;20305;-75
2023/03/06 12:59:43;;;;;;;1.33;1.33;;;;;;;;;;6212359;28;20310;-75
2023/03/06 13:02:59;;;;;;;5.03;1.50;;;;;;;;;;6212099;28;20292;-75
2023/03/06 13:06:19;;;;;;;1.43;1.33;;;;;;;;;;6162944;28;20293;-76
2023/03/06 13:09:31;;;;;;;1.50;1.50;;;;;;;;;;6178395;28;20294;-75
2023/03/06 13:12:55;;;;;;;1.53;0.90;;;;;;;;;;6170064;28;20296;-75
2023/03/06 13:16:12;;;;;;;1.10;1.10;;;;;;;;;;6188033;28;20297;-75
2023/03/06 13:19:19;;;;;;;1.33;1.00;;;;;;;;;;6163700;28;20309;-75
2023/03/06 13:22:27;;;;;;;3.20;1.10;;;;;;;;;;6185503;28;20270;-77
2023/03/06 13:25:48;;;;;;;1.10;1.10;;;;;;;;;;6163986;28;20274;-76
2023/03/06 13:28:56;;;;;;;1.20;1.20;;;;;;;;;;6170335;28;20298;-76
2023/03/06 13:32:17;;;;;;;1.10;1.10;;;;;;;;;;6182493;28;20306;-76
2023/03/06 13:35:53;;;;;;;1.10;1.10;;;;;;;;;;6171794;28;20313;-76
2023/03/06 13:39:04;;;;;;;2.07;1.27;;;;;;;;;;6173776;28;20343;-75
2023/03/06 13:42:27;;;;;;;1.00;1.00;;;;;;;;;;6177854;28;20289;-76
2023/03/06 13:45:44;;;;;;;2.20;1.50;;;;;;;;;;6309603;27;20574;-90
2023/03/06 13:49:05;;;;;;;1.20;1.10;;;;;;;;;;6307560;28;20310;-90
2023/03/06 13:52:24;;;;;;;1.00;1.00;;;;;;;;;;6271605;28;20287;-92
2023/03/06 13:55:50;;;;;;;3.20;1.17;;;;;;;;;;6286063;28;20290;-91
2023/03/06 13:59:20;;;;;;;2.30;1.10;;;;;;;;;;6304793;28;20291;-93
2023/03/06 14:03:05;;;;;;;1.03;1.00;;;;;;;;;;6288806;28;20307;-92
2023/03/06 14:06:53;;;;;;;1.20;1.20;;;;;;;;;;6239821;28;20317;-91
2023/03/06 14:10:14;;;;;;;2.07;1.27;;;;;;;;;;6290963;28;20295;-92
2023/03/06 14:13:25;;;;;;;3.90;1.40;;;;;;;;;;6288624;28;20294;-90
2023/03/06 14:16:43;;;;;;;1.23;1.20;;;;;;;;;;6314636;28;20259;-90
2023/03/06 14:20:14;;;;;;;1.33;1.23;;;;;;;;;;6318144;28;20313;-92
2023/03/06 14:23:27;;;;;;;1.77;1.40;;;;;;;;;;6315372;28;20493;-90
2023/03/06 14:26:34;;;;;;;1.53;1.53;;;;;;;;;;6318885;28;20291;-91
2023/03/06 14:29:42;;;;;;;1.03;1.03;;;;;;;;;;6316145;28;20469;-92
2023/03/06 14:32:52;;;;;;;3.40;1.10;;;;;;;;;;6311849;28;20291;-91
2023/03/06 14:36:03;;;;;;;1.00;1.00;;;;;;;;;;6314839;28;20296;-91
2023/03/06 14:39:19;;;;;;;2.17;1.20;;;;;;;;;;6297989;28;20292;-89
2023/03/06 14:42:27;;;;;;;1.00;1.00;;;;;;;;;;6319348;28;20251;-89
2023/03/06 14:45:35;;;;;;;4.13;1.20;;;;;;;;;;6318156;28;20303;-89
2023/03/06 14:48:47;;;;;;;4.73;1.30;;;;;;;;;;6315439;28;20277;-91
2023/03/06 14:52:34;;;;;;;2.87;1.20;;;;;;;;;;6313180;28;20292;-93
2023/03/06 14:55:52;;;;;;;1.80;1.70;;;;;;;;;;6294771;28;20293;-90
2023/03/06 14:59:00;;;;;;;4.20;1.90;;;;;;;;;;6296819;28;20311;-93
2023/03/06 15:02:31;;;;;;;3.70;1.47;;;;;;;;;;6299567;28;20252;-91
2023/03/06 15:09:24;;;;;;;2.23;1.17;;;;;;;;;;6297410;28;20294;-92
2023/03/06 15:12:52;;;;;;;2.23;1.30;;;;;;;;;;6284706;28;20505;-90
2023/03/06 15:16:18;;;;;;;2.50;0.90;;;;;;;;;;6279477;28;20303;-92
2023/03/06 15:34:22;;;;;;;1.10;1.00;;;;;;;;;;6293346;28;20297;-92
2023/03/06 16:24:54;;;;;;;3.80;1.17;;;;;;;;;;6315942;27;20575;-77
2023/03/06 16:28:00;;;;;;;1.33;1.30;;;;;;;;;;6309669;28;20574;-76
2023/03/06 16:31:05;;;;;;;1.30;1.30;;;;;;;;;;6331031;28;20291;-76
2023/03/06 16:34:11;;;;;;;1.10;1.10;;;;;;;;;;6330359;28;20298;-76
2023/03/06 16:37:16;;;;;;;1.50;1.30;;;;;;;;;;6330833;28;20300;-76
2023/03/06 16:40:24;;;;;;;4.57;1.40;;;;;;;;;;6304454;27;20609;-76
2023/03/06 16:43:29;;;;;;;1.60;1.50;;;;;;;;;;6330252;28;20295;-77
2023/03/06 16:46:38;;;;;;;1.43;1.43;;;;;;;;;;6330647;28;20566;-76
2023/03/06 16:49:43;;;;;;;1.50;1.40;;;;;;;;;;6328517;28;20298;-76
2023/03/06 16:52:49;;;;;;;3.13;1.30;;;;;;;;;;6329752;28;20600;-77
2023/03/06 16:55:55;;;;;;;1.37;1.30;;;;;;;;;;6329956;28;20287;-76
2023/03/06 16:59:00;;;;;;;1.50;1.40;;;;;;;;;;6329332;28;20291;-76
2023/03/06 17:02:06;;;;;;;1.30;1.20;;;;;;;;;;6330131;28;20303;-76
2023/03/06 17:05:13;;;;;;;1.47;1.47;;;;;;;;;;6329798;28;20395;-75
2023/03/06 17:08:18;;;;;;;1.50;1.50;;;;;;;;;;6329231;28;20287;-75
2023/03/06 17:11:25;;;;;;;1.30;1.30;;;;;;;;;;6329776;28;20590;-75
2023/03/06 17:14:32;;;;;;;3.10;1.53;;;;;;;;;;6329845;27;20288;-77
2023/03/06 17:17:37;;;;;;;4.53;1.50;;;;;;;;;;6329716;27;20286;-76
2023/03/06 17:20:51;;;;;;;2.93;1.47;;;;;;;;;;6329133;28;20513;-74
2023/03/06 17:23:56;;;;;;;2.47;1.90;;;;;;;;;;6327633;28;20497;-76
2023/03/06 17:27:03;;;;;;;4.00;1.40;;;;;;;;;;6330170;27;20299;-76
2023/03/06 17:30:10;;;;;;;3.17;1.23;;;;;;;;;;6328937;27;20295;-75
2023/03/06 17:33:15;;;;;;;7.30;1.67;;;;;;;;;;6329175;27;20641;-74
2023/03/06 17:36:20;;;;;;;2.10;1.87;;;;;;;;;;6310920;28;20299;-75
2023/03/06 17:39:25;;;;;;;1.40;1.40;;;;;;;;;;6312085;28;20300;-76
2023/03/06 17:42:32;;;;;;;4.30;1.53;;;;;;;;;;6310408;28;20295;-75
2023/03/06 17:45:37;;;;;;;1.27;1.17;;;;;;;;;;6312667;28;20291;-76
2023/03/06 17:48:43;;;;;;;1.80;1.40;;;;;;;;;;6312080;28;20295;-75
2023/03/06 17:51:48;;;;;;;2.83;1.60;;;;;;;;;;6308787;28;20288;-76
2023/03/06 17:54:53;;;;;;;1.60;1.50;;;;;;;;;;6302013;28;20291;-76
2023/03/06 17:58:00;;;;;;;1.90;1.80;;;;;;;;;;6287355;28;20294;-76
2023/03/06 18:01:11;;;;;;;1.30;1.30;;;;;;;;;;6287211;28;20316;-76
2023/03/06 18:04:17;;;;;;;1.57;1.07;;;;;;;;;;6285428;28;20316;-76
2023/03/06 18:07:23;;;;;;;3.90;1.40;;;;;;;;;;6276173;28;20281;-76
2023/03/06 18:10:30;;;;;;;1.30;1.27;;;;;;;;;;6291058;28;20267;-76
2023/03/06 18:13:39;;;;;;;1.30;1.30;;;;;;;;;;6319153;28;20300;-75
2023/03/06 18:16:45;;;;;;;3.80;1.47;;;;;;;;;;6340141;28;20298;-77
2023/03/06 18:19:51;;;;;;;1.40;1.30;;;;;;;;;;6316303;28;20291;-77
2023/03/06 18:23:02;;;;;;;2.60;1.30;;;;;;;;;;6307272;28;20309;-79
2023/03/06 18:26:10;;;;;;;1.40;1.30;;;;;;;;;;6293610;28;20311;-76
2023/03/06 18:29:17;;;;;;;2.00;1.43;;;;;;;;;;6303548;28;20304;-77
2023/03/06 18:32:22;;;;;;;1.40;1.23;;;;;;;;;;6311621;28;20299;-78
2023/03/06 18:35:27;;;;;;;1.20;1.20;;;;;;;;;;6298420;28;20300;-76
2023/03/06 18:38:33;;;;;;;1.47;1.30;;;;;;;;;;6310699;28;20306;-77
2023/03/06 18:41:38;;;;;;;1.10;1.10;;;;;;;;;;6311412;28;20293;-76
2023/03/06 18:44:46;;;;;;;1.33;1.33;;;;;;;;;;6310853;28;20299;-76
2023/03/06 18:47:51;;;;;;;1.50;1.33;;;;;;;;;;6309527;28;20570;-76
2023/03/06 18:50:57;;;;;;;1.30;1.30;;;;;;;;;;6310601;28;20315;-76
2023/03/06 18:54:03;;;;;;;1.40;1.27;;;;;;;;;;6310540;28;20318;-75
2023/03/06 18:57:10;;;;;;;2.47;1.70;;;;;;;;;;6309846;28;20312;-75
2023/03/06 19:00:18;;;;;;;1.87;1.23;;;;;;;;;;6309380;28;20287;-76
2023/03/06 19:03:24;;;;;;;2.20;1.30;;;;;;;;;;6310062;28;20596;-77
2023/03/06 19:06:29;;;;;;;1.20;1.20;;;;;;;;;;6310759;28;20580;-75
2023/03/06 19:09:35;;;;;;;2.10;1.30;;;;;;;;;;6292476;28;20293;-74
2023/03/06 19:12:40;;;;;;;2.17;1.60;;;;;;;;;;6283962;28;20562;-75
2023/03/06 19:15:48;;;;;;;1.13;1.13;;;;;;;;;;6286027;28;20401;-76
2023/03/06 19:18:55;;;;;;;3.80;1.20;;;;;;;;;;6294978;28;20316;-74
2023/03/06 19:22:00;;;;;;;1.50;1.40;;;;;;;;;;6309394;28;20303;-76
2023/03/06 19:25:06;;;;;;;3.70;1.40;;;;;;;;;;6288240;28;20309;-76
2023/03/06 19:28:15;;;;;;;3.90;1.50;;;;;;;;;;6291598;28;20627;-75
2023/03/06 19:31:27;;;;;;;4.93;1.60;;;;;;;;;;6308767;28;20278;-75
2023/03/06 19:34:32;;;;;;;1.37;1.20;;;;;;;;;;6309543;28;20307;-74
2023/03/06 19:37:37;;;;;;;1.50;1.50;;;;;;;;;;6324491;28;20297;-76
2023/03/06 19:40:49;;;;;;;2.43;1.20;;;;;;;;;;6309643;28;20300;-78
2023/03/06 19:43:57;;;;;;;1.20;1.20;;;;;;;;;;6309567;28;20292;-76
2023/03/06 19:47:03;;;;;;;3.70;1.20;;;;;;;;;;6310371;28;20285;-77
2023/03/06 19:50:10;;;;;;;2.23;1.40;;;;;;;;;;6308974;28;20308;-76
2023/03/06 19:53:15;;;;;;;2.53;1.30;;;;;;;;;;6308455;28;20696;-77
2023/03/06 19:56:22;;;;;;;1.30;1.30;;;;;;;;;;6308126;28;20299;-76
2023/03/06 19:59:28;;;;;;;4.77;1.30;;;;;;;;;;6307632;28;20297;-76
2023/03/06 20:02:35;;;;;;;1.40;1.30;;;;;;;;;;6308762;28;20288;-76
2023/03/06 20:05:46;;;;;;;3.20;1.00;;;;;;;;;;6308683;28;20302;-76